createdAt,value
2023-08-31T00:01:36.624Z,100435.91
2023-08-31T00:04:05.205Z,100431.06
2023-08-31T00:06:31.901Z,100436.03
2023-08-31T00:08:58.591Z,100438.41
2023-08-31T00:11:27.076Z,100434.41
2023-08-31T00:13:53.799Z,100436.34
2023-08-31T00:16:26.875Z,100437.72
2023-08-31T00:18:54.208Z,100433.91
2023-08-31T00:21:22.318Z,100434.28
2023-08-31T00:23:49.570Z,100429.25
2023-08-31T00:26:16.321Z,100444.44
2023-08-31T00:28:43.998Z,100442.84
2023-08-31T00:31:10.757Z,100449.22
2023-08-31T00:33:39.689Z,100444.38
2023-08-31T00:36:06.557Z,100441.78
2023-08-31T00:38:33.373Z,100445.38
2023-08-31T00:41:01.541Z,100450.59
2023-08-31T00:43:29.050Z,100448.97
2023-08-31T00:45:59.443Z,100451.56
2023-08-31T00:48:26.602Z,100441.16
2023-08-31T00:50:53.579Z,100445.94
2023-08-31T00:53:20.379Z,100426.91
2023-08-31T00:55:47.316Z,100437.53
2023-08-31T00:58:14.789Z,100431.66
2023-08-31T01:00:48.215Z,100432.88
2023-08-31T01:03:29.150Z,100433.03
2023-08-31T01:06:22.122Z,100432.63
2023-08-31T01:09:15.524Z,100426.00
2023-08-31T01:12:06.678Z,100433.19
2023-08-31T01:14:40.844Z,100437.94
2023-08-31T01:17:10.126Z,100438.13
2023-08-31T01:19:56.726Z,100426.91
2023-08-31T01:22:43.591Z,100438.94
2023-08-31T01:25:10.974Z,100438.13
2023-08-31T01:27:38.734Z,100439.91
2023-08-31T01:30:06.777Z,100437.50
2023-08-31T01:32:34.122Z,100433.28
2023-08-31T01:35:05.381Z,100436.88
2023-08-31T01:37:44.959Z,100438.47
2023-08-31T01:40:26.005Z,100432.31
2023-08-31T01:42:53.176Z,100432.47
2023-08-31T01:45:24.070Z,100432.91
2023-08-31T01:47:50.877Z,100440.53
2023-08-31T01:50:18.136Z,100441.16
2023-08-31T01:52:44.772Z,100433.97
2023-08-31T01:55:12.025Z,100437.22
2023-08-31T01:57:38.634Z,100439.63
2023-08-31T02:00:07.205Z,100433.25
2023-08-31T02:02:34.563Z,100440.69
2023-08-31T02:05:02.928Z,100437.88
2023-08-31T02:07:29.631Z,100435.69
2023-08-31T02:09:56.467Z,100427.72
2023-08-31T02:12:23.536Z,100441.78
2023-08-31T02:14:50.861Z,100449.56
2023-08-31T02:17:17.608Z,100454.41
2023-08-31T02:19:44.227Z,100453.03
2023-08-31T02:22:10.835Z,100446.06
2023-08-31T02:24:37.558Z,100446.06
2023-08-31T02:27:04.569Z,100437.28
2023-08-31T02:29:31.218Z,100437.44
2023-08-31T02:31:57.858Z,100436.63
2023-08-31T02:34:24.567Z,100431.00
2023-08-31T02:36:51.252Z,100434.41
2023-08-31T02:39:17.874Z,100420.78
2023-08-31T02:41:44.715Z,100437.03
2023-08-31T02:44:12.624Z,100436.81
2023-08-31T02:46:39.956Z,100431.25
2023-08-31T02:49:07.015Z,100427.63
2023-08-31T02:51:33.629Z,100428.66
2023-08-31T02:54:00.360Z,100432.47
2023-08-31T02:56:26.963Z,100431.66
2023-08-31T02:58:53.582Z,100440.09
2023-08-31T03:01:20.376Z,100439.31
2023-08-31T03:03:47.847Z,100441.72
2023-08-31T03:06:14.607Z,100434.72
2023-08-31T03:08:41.347Z,100430.50
2023-08-31T03:11:08.490Z,100434.53
2023-08-31T03:13:35.367Z,100428.09
2023-08-31T03:16:02.799Z,100420.09
2023-08-31T03:18:30.288Z,100424.69
2023-08-31T03:20:57.407Z,100416.25
2023-08-31T03:23:24.004Z,100420.84
2023-08-31T03:25:50.695Z,100420.19
2023-08-31T03:28:17.374Z,100413.56
2023-08-31T03:30:46.421Z,100416.88
2023-08-31T03:33:13.951Z,100414.66
2023-08-31T03:35:40.897Z,100422.84
2023-08-31T03:38:07.837Z,100414.16
2023-08-31T03:40:34.455Z,100418.91
2023-08-31T03:43:01.356Z,100420.28
2023-08-31T03:45:28.105Z,100417.25
2023-08-31T03:47:55.050Z,100413.84
2023-08-31T03:50:21.834Z,100415.56
2023-08-31T03:52:48.510Z,100416.38
2023-08-31T03:55:15.305Z,100423.38
2023-08-31T03:57:41.990Z,100424.34
2023-08-31T04:00:13.866Z,100418.19
2023-08-31T04:02:40.645Z,100420.97
2023-08-31T04:05:07.728Z,100423.38
2023-08-31T04:07:36.321Z,100425.16
2023-08-31T04:10:05.009Z,100430.19
2023-08-31T04:12:31.959Z,100425.78
2023-08-31T04:14:58.726Z,100430.97
2023-08-31T04:17:25.609Z,100434.94
2023-08-31T04:19:52.286Z,100433.34
2023-08-31T04:22:19.127Z,100439.72
2023-08-31T04:24:46.858Z,100444.31
2023-08-31T04:27:13.588Z,100442.06
2023-08-31T04:29:40.283Z,100447.41
2023-08-31T04:32:06.951Z,100450.22
2023-08-31T04:34:34.762Z,100448.63
2023-08-31T04:37:04.374Z,100450.56
2023-08-31T04:39:31.009Z,100453.16
2023-08-31T04:41:57.672Z,100453.34
2023-08-31T04:44:24.362Z,100442.97
2023-08-31T04:46:51.024Z,100454.38
2023-08-31T04:49:17.733Z,100443.78
2023-08-31T04:51:45.618Z,100443.59
2023-08-31T04:54:12.744Z,100444.19
2023-08-31T04:56:41.586Z,100452.25
2023-08-31T04:59:08.369Z,100450.66
2023-08-31T05:01:35.166Z,100450.28
2023-08-31T05:04:01.932Z,100457.91
2023-08-31T05:06:28.663Z,100454.94
2023-08-31T05:08:55.336Z,100453.75
2023-08-31T05:11:21.999Z,100464.63
2023-08-31T05:13:49.595Z,100468.19
2023-08-31T05:16:17.436Z,100467.22
2023-08-31T05:18:44.219Z,100466.81
2023-08-31T05:21:10.797Z,100472.13
2023-08-31T05:23:37.813Z,100480.97
2023-08-31T05:26:04.589Z,100477.81
2023-08-31T05:28:31.358Z,100479.84
2023-08-31T05:30:59.269Z,100482.78
2023-08-31T05:33:28.556Z,100491.91
2023-08-31T05:35:55.877Z,100501.63
2023-08-31T05:38:22.489Z,100495.13
2023-08-31T05:40:49.253Z,100482.78
2023-08-31T05:43:17.082Z,100496.91
2023-08-31T05:45:44.184Z,100503.81
2023-08-31T05:48:11.257Z,100504.91
2023-08-31T05:50:38.123Z,100511.00
2023-08-31T05:53:05.603Z,100512.44
2023-08-31T05:55:33.904Z,100517.47
2023-08-31T05:58:01.843Z,100520.88
2023-08-31T06:00:28.774Z,100517.28
2023-08-31T06:02:55.834Z,100517.53
2023-08-31T06:05:22.626Z,100524.53
2023-08-31T06:07:49.256Z,100519.53
2023-08-31T06:10:16.551Z,100525.03
2023-08-31T06:12:43.281Z,100532.88
2023-08-31T06:15:10.446Z,100533.03
2023-08-31T06:17:38.299Z,100540.94
2023-08-31T06:20:06.854Z,100533.63
2023-08-31T06:22:33.667Z,100538.69
2023-08-31T06:25:00.948Z,100546.44
2023-08-31T06:27:27.849Z,100542.91
2023-08-31T06:29:54.521Z,100543.13
2023-08-31T06:32:21.386Z,100545.78
2023-08-31T06:34:48.351Z,100551.72
2023-08-31T06:37:15.119Z,100558.63
2023-08-31T06:39:42.408Z,100552.66
2023-08-31T06:42:09.253Z,100551.91
2023-08-31T06:44:36.968Z,100572.06
2023-08-31T06:47:04.475Z,100558.78
2023-08-31T06:49:33.962Z,100559.59
2023-08-31T06:52:01.738Z,100557.56
2023-08-31T06:54:28.468Z,100562.03
2023-08-31T06:56:55.219Z,100566.94
2023-08-31T06:59:21.843Z,100556.06
2023-08-31T07:01:48.616Z,100560.38
2023-08-31T07:04:15.421Z,100562.13
2023-08-31T07:06:42.196Z,100564.22
2023-08-31T07:09:09.594Z,100569.84
2023-08-31T07:11:36.305Z,100569.31
2023-08-31T07:14:03.306Z,100580.50
2023-08-31T07:16:30.105Z,100576.16
2023-08-31T07:18:56.976Z,100581.28
2023-08-31T07:21:24.001Z,100582.09
2023-08-31T07:23:50.786Z,100593.38
2023-08-31T07:26:17.544Z,100591.84
2023-08-31T07:28:44.347Z,100590.44
2023-08-31T07:31:11.398Z,100592.16
2023-08-31T07:33:38.225Z,100595.72
2023-08-31T07:36:07.346Z,100594.31
2023-08-31T07:38:34.822Z,100594.78
2023-08-31T07:41:02.010Z,100595.25
2023-08-31T07:43:28.937Z,100601.53
2023-08-31T07:45:55.644Z,100596.38
2023-08-31T07:48:23.054Z,100604.97
2023-08-31T07:50:50.058Z,100603.31
2023-08-31T07:53:18.571Z,100609.78
2023-08-31T07:55:55.683Z,100610.44
2023-08-31T07:58:23.374Z,100605.47
2023-08-31T08:00:50.704Z,100608.69
2023-08-31T08:03:17.678Z,100610.97
2023-08-31T08:05:44.509Z,100615.84
2023-08-31T08:08:12.195Z,100610.53
2023-08-31T08:10:39.172Z,100616.63
2023-08-31T08:13:06.213Z,100614.81
2023-08-31T08:15:33.134Z,100619.84
2023-08-31T08:17:59.943Z,100621.81
2023-08-31T08:20:26.762Z,100621.25
2023-08-31T08:22:53.538Z,100628.13
2023-08-31T08:25:23.203Z,100629.41
2023-08-31T08:27:50.015Z,100632.38
2023-08-31T08:30:16.748Z,100630.81
2023-08-31T08:32:44.403Z,100635.41
2023-08-31T08:35:11.205Z,100632.19
2023-08-31T08:37:38.978Z,100628.75
2023-08-31T08:40:06.359Z,100632.63
2023-08-31T08:42:42.315Z,100629.34
2023-08-31T08:45:17.833Z,100633.28
2023-08-31T08:47:45.533Z,100627.59
2023-08-31T08:50:15.067Z,100634.56
2023-08-31T08:52:42.976Z,100632.66
2023-08-31T08:55:10.697Z,100638.25
2023-08-31T08:57:38.174Z,100641.22
2023-08-31T09:00:06.699Z,100644.94
2023-08-31T09:02:33.598Z,100645.69
2023-08-31T09:05:00.412Z,100637.41
2023-08-31T09:07:31.249Z,100646.28
2023-08-31T09:09:57.950Z,100647.19
2023-08-31T09:12:25.797Z,100647.81
2023-08-31T09:15:02.743Z,100652.38
2023-08-31T09:17:40.573Z,100648.41
2023-08-31T09:20:08.005Z,100650.03
2023-08-31T09:22:35.388Z,100654.56
2023-08-31T09:25:02.444Z,100650.91
2023-08-31T09:27:29.282Z,100651.75
2023-08-31T09:29:57.149Z,100643.19
2023-08-31T09:32:23.943Z,100644.13
2023-08-31T09:34:54.304Z,100653.34
2023-08-31T09:37:26.421Z,100657.88
2023-08-31T09:39:54.050Z,100661.22
2023-08-31T09:42:21.384Z,100655.31
2023-08-31T09:44:50.785Z,100654.41
2023-08-31T09:47:21.044Z,100658.84
2023-08-31T09:49:48.099Z,100650.19
2023-08-31T09:52:16.058Z,100655.97
2023-08-31T09:54:45.226Z,100659.44
2023-08-31T09:57:14.232Z,100662.50
2023-08-31T09:59:41.777Z,100665.69
2023-08-31T10:02:10.737Z,100664.66
2023-08-31T10:04:38.383Z,100671.69
2023-08-31T10:07:07.305Z,100673.72
2023-08-31T10:09:34.579Z,100669.97
2023-08-31T10:12:04.620Z,100677.34
2023-08-31T10:14:31.546Z,100675.75
2023-08-31T10:16:59.215Z,100673.03
2023-08-31T10:19:27.034Z,100677.72
2023-08-31T10:21:54.292Z,100678.81
2023-08-31T10:25:00.116Z,100678.50
2023-08-31T10:27:28.071Z,100673.81
2023-08-31T10:29:54.731Z,100677.13
2023-08-31T10:32:22.507Z,100679.63
2023-08-31T10:35:22.262Z,100673.09
2023-08-31T10:37:50.041Z,100679.50
2023-08-31T10:40:17.795Z,100686.03
2023-08-31T10:42:48.540Z,100675.59
2023-08-31T10:45:15.670Z,100685.19
2023-08-31T10:47:45.453Z,100684.63
2023-08-31T10:50:22.541Z,100687.53
2023-08-31T10:52:50.277Z,100691.75
2023-08-31T10:55:17.728Z,100691.28
2023-08-31T10:57:44.456Z,100697.25
2023-08-31T11:00:12.896Z,100695.19
2023-08-31T11:02:42.895Z,100698.19
2023-08-31T11:05:17.749Z,100703.47
2023-08-31T11:07:45.774Z,100706.44
2023-08-31T11:10:21.100Z,100712.97
2023-08-31T11:12:49.920Z,100701.97
2023-08-31T11:15:21.200Z,100702.66
2023-08-31T11:17:49.112Z,100695.22
2023-08-31T11:20:18.212Z,100688.34
2023-08-31T11:22:48.286Z,100683.09
2023-08-31T11:25:35.039Z,100690.72
2023-08-31T11:28:06.355Z,100688.38
2023-08-31T11:30:34.049Z,100693.44
2023-08-31T11:33:12.841Z,100698.50
2023-08-31T11:35:42.812Z,100694.53
2023-08-31T11:38:09.616Z,100694.06
2023-08-31T11:40:38.717Z,100702.88
2023-08-31T11:43:08.804Z,100708.03
2023-08-31T11:45:37.824Z,100709.66
2023-08-31T11:48:05.257Z,100718.41
2023-08-31T11:50:32.275Z,100713.00
2023-08-31T11:52:59.022Z,100715.31
2023-08-31T11:55:25.755Z,100717.31
2023-08-31T11:57:55.677Z,100707.44
2023-08-31T12:00:23.895Z,100705.97
2023-08-31T12:03:00.860Z,100713.31
2023-08-31T12:05:45.461Z,100707.25
2023-08-31T12:08:12.280Z,100714.81
2023-08-31T12:10:42.823Z,100704.03
2023-08-31T12:13:11.630Z,100705.16
2023-08-31T12:15:38.809Z,100703.78
2023-08-31T12:18:12.758Z,100705.97
2023-08-31T12:20:52.273Z,100704.25
2023-08-31T12:23:22.590Z,100719.81
2023-08-31T12:25:53.562Z,100718.97
2023-08-31T12:28:21.935Z,100718.91
2023-08-31T12:30:53.557Z,100712.66
2023-08-31T12:33:21.565Z,100709.19
2023-08-31T12:35:50.198Z,100710.09
2023-08-31T12:38:16.932Z,100711.84
2023-08-31T12:40:43.574Z,100712.81
2023-08-31T12:43:11.179Z,100730.13
2023-08-31T12:45:38.058Z,100722.69
2023-08-31T12:48:06.584Z,100721.50
2023-08-31T12:50:33.352Z,100714.69
2023-08-31T12:53:00.375Z,100714.22
2023-08-31T12:55:27.172Z,100719.75
2023-08-31T12:57:53.848Z,100720.16
2023-08-31T13:00:20.793Z,100729.78
2023-08-31T13:02:48.190Z,100732.50
2023-08-31T13:05:15.119Z,100736.72
2023-08-31T13:07:41.880Z,100734.94
2023-08-31T13:10:08.886Z,100739.84
2023-08-31T13:12:35.613Z,100743.19
2023-08-31T13:15:02.598Z,100732.91
2023-08-31T13:17:29.577Z,100723.59
2023-08-31T13:19:58.283Z,100725.00
2023-08-31T13:22:25.743Z,100722.47
2023-08-31T13:24:53.145Z,100721.47
2023-08-31T13:27:20.203Z,100724.19
2023-08-31T13:29:46.777Z,100724.09
2023-08-31T13:32:13.576Z,100724.41
2023-08-31T13:34:40.677Z,100714.44
2023-08-31T13:37:07.396Z,100728.09
2023-08-31T13:39:37.068Z,100735.06
2023-08-31T13:42:04.959Z,100728.69
2023-08-31T13:44:32.478Z,100734.97
2023-08-31T13:46:59.342Z,100736.69
2023-08-31T13:49:26.067Z,100731.50
2023-08-31T13:51:52.773Z,100748.88
2023-08-31T13:54:19.407Z,100750.56
2023-08-31T13:56:46.130Z,100751.06
2023-08-31T13:59:12.799Z,100753.38
2023-08-31T14:01:39.609Z,100750.25
2023-08-31T14:04:07.178Z,100746.50
2023-08-31T14:06:33.914Z,100751.78
2023-08-31T14:09:00.630Z,100748.59
2023-08-31T14:11:30.879Z,100752.97
2023-08-31T14:14:12.081Z,100750.13
2023-08-31T14:16:39.728Z,100748.28
2023-08-31T14:19:07.086Z,100753.78
2023-08-31T14:21:33.981Z,100749.41
2023-08-31T14:24:00.716Z,100754.44
2023-08-31T14:26:27.457Z,100755.72
2023-08-31T14:28:55.473Z,100752.84
2023-08-31T14:31:22.273Z,100758.13
2023-08-31T14:33:49.312Z,100761.09
2023-08-31T14:36:17.327Z,100757.47
2023-08-31T14:38:44.019Z,100755.44
2023-08-31T14:41:12.037Z,100753.50
2023-08-31T14:43:38.705Z,100761.63
2023-08-31T14:46:05.475Z,100753.03
2023-08-31T14:48:33.447Z,100760.59
2023-08-31T14:51:01.597Z,100753.16
2023-08-31T14:53:28.816Z,100756.47
2023-08-31T14:55:55.845Z,100759.34
2023-08-31T14:58:22.530Z,100759.34
2023-08-31T15:00:49.685Z,100750.31
2023-08-31T15:03:17.130Z,100754.78
2023-08-31T15:05:44.034Z,100760.41
2023-08-31T15:08:12.667Z,100757.28
2023-08-31T15:10:40.929Z,100758.91
2023-08-31T15:13:07.844Z,100758.78
2023-08-31T15:15:34.965Z,100761.84
2023-08-31T15:18:01.818Z,100761.97
2023-08-31T15:20:28.606Z,100763.47
2023-08-31T15:22:55.654Z,100761.63
2023-08-31T15:25:23.650Z,100763.56
2023-08-31T15:27:50.392Z,100763.00
2023-08-31T15:30:17.368Z,100759.75
2023-08-31T15:32:44.101Z,100767.88
2023-08-31T15:35:13.408Z,100769.38
2023-08-31T15:37:46.581Z,100773.16
2023-08-31T15:40:13.346Z,100772.72
2023-08-31T15:42:40.188Z,100773.38
2023-08-31T15:45:07.276Z,100774.97
2023-08-31T15:47:34.315Z,100769.72
2023-08-31T15:50:01.072Z,100774.06
2023-08-31T15:52:27.801Z,100767.88
2023-08-31T15:54:55.726Z,100768.22
2023-08-31T15:57:22.461Z,100773.03
2023-08-31T15:59:49.267Z,100782.63
2023-08-31T16:02:17.019Z,100776.00
2023-08-31T16:04:45.157Z,100777.09
2023-08-31T16:07:13.341Z,100779.16
2023-08-31T16:09:40.824Z,100776.75
2023-08-31T16:12:07.831Z,100779.59
2023-08-31T16:14:37.162Z,100773.75
2023-08-31T16:17:04.086Z,100774.19
2023-08-31T16:19:33.880Z,100775.38
2023-08-31T16:22:03.825Z,100774.13
2023-08-31T16:24:30.445Z,100783.75
2023-08-31T16:26:57.188Z,100780.09
2023-08-31T16:29:24.990Z,100783.38
2023-08-31T16:31:51.729Z,100776.53
2023-08-31T16:34:18.667Z,100771.28
2023-08-31T16:36:45.530Z,100778.13
2023-08-31T16:39:12.364Z,100777.69
2023-08-31T16:41:40.953Z,100780.31
2023-08-31T16:44:07.640Z,100789.47
2023-08-31T16:46:34.588Z,100785.69
2023-08-31T16:49:01.382Z,100787.72
2023-08-31T16:51:28.258Z,100782.69
2023-08-31T16:53:55.047Z,100785.97
2023-08-31T16:56:21.672Z,100785.38
2023-08-31T16:58:48.318Z,100798.03
2023-08-31T17:01:15.345Z,100794.03
2023-08-31T17:03:42.098Z,100798.94
2023-08-31T17:06:10.002Z,100799.38
2023-08-31T17:08:36.696Z,100799.22
2023-08-31T17:11:12.197Z,100798.06
2023-08-31T17:13:39.229Z,100798.50
2023-08-31T17:16:12.650Z,100796.75
2023-08-31T17:18:40.714Z,100792.84
2023-08-31T17:21:07.758Z,100792.25
2023-08-31T17:23:34.647Z,100798.59
2023-08-31T17:26:01.593Z,100790.38
2023-08-31T17:28:29.709Z,100796.91
2023-08-31T17:30:57.192Z,100794.94
2023-08-31T17:33:25.764Z,100800.06
2023-08-31T17:35:53.055Z,100803.53
2023-08-31T17:38:19.816Z,100806.78
2023-08-31T17:40:50.012Z,100800.78
2023-08-31T17:43:17.507Z,100811.94
2023-08-31T17:45:44.231Z,100810.78
2023-08-31T17:48:10.986Z,100810.25
2023-08-31T17:50:37.757Z,100812.72
2023-08-31T17:53:04.789Z,100808.34
2023-08-31T17:55:32.703Z,100814.44
2023-08-31T17:57:59.424Z,100816.09
2023-08-31T18:00:26.211Z,100823.00
2023-08-31T18:02:53.627Z,100823.88
2023-08-31T18:05:23.792Z,100830.38
2023-08-31T18:07:51.024Z,100839.31
2023-08-31T18:10:19.231Z,100841.38
2023-08-31T18:12:46.670Z,100846.06
2023-08-31T18:15:14.660Z,100841.84
2023-08-31T18:17:41.331Z,100848.94
2023-08-31T18:20:09.160Z,100852.97
2023-08-31T18:22:36.113Z,100856.44
2023-08-31T18:25:04.487Z,100854.44
2023-08-31T18:27:31.239Z,100857.91
2023-08-31T18:30:00.530Z,100853.69
2023-08-31T18:32:27.453Z,100856.34
2023-08-31T18:34:54.743Z,100865.00
2023-08-31T18:37:21.466Z,100856.97
2023-08-31T18:39:48.274Z,100863.41
2023-08-31T18:42:15.366Z,100865.06
2023-08-31T18:44:42.213Z,100865.06
2023-08-31T18:47:08.880Z,100867.28
2023-08-31T18:49:36.141Z,100878.59
2023-08-31T18:52:03.090Z,100881.22
2023-08-31T18:54:29.898Z,100873.75
2023-08-31T18:56:56.646Z,100878.97
2023-08-31T18:59:23.279Z,100877.13
2023-08-31T19:01:51.355Z,100878.75
2023-08-31T19:04:18.086Z,100869.50
2023-08-31T19:06:45.007Z,100877.97
2023-08-31T19:09:11.717Z,100874.31
2023-08-31T19:11:39.221Z,100874.91
2023-08-31T19:14:05.921Z,100875.50
2023-08-31T19:16:33.802Z,100878.13
2023-08-31T19:19:01.418Z,100883.97
2023-08-31T19:21:28.161Z,100879.53
2023-08-31T19:23:54.890Z,100886.94
2023-08-31T19:26:22.610Z,100886.72
2023-08-31T19:28:49.276Z,100886.50
2023-08-31T19:31:15.988Z,100890.53
2023-08-31T19:33:42.673Z,100886.09
2023-08-31T19:36:11.249Z,100887.50
2023-08-31T19:38:40.003Z,100889.47
2023-08-31T19:41:07.329Z,100892.25
2023-08-31T19:43:33.971Z,100893.63
2023-08-31T19:46:02.108Z,100891.41
2023-08-31T19:48:29.072Z,100897.22
2023-08-31T19:51:05.070Z,100897.59
2023-08-31T19:53:32.172Z,100901.00
2023-08-31T19:55:58.971Z,100898.97
2023-08-31T19:58:25.680Z,100889.09
2023-08-31T20:00:52.864Z,100890.28
2023-08-31T20:03:19.672Z,100890.44
2023-08-31T20:05:46.560Z,100891.84
2023-08-31T20:08:13.410Z,100895.03
2023-08-31T20:10:40.275Z,100904.06
2023-08-31T20:13:07.133Z,100906.06
2023-08-31T20:15:34.309Z,100902.03
2023-08-31T20:18:01.171Z,100897.19
2023-08-31T20:20:31.458Z,100906.22
2023-08-31T20:22:58.490Z,100905.97
2023-08-31T20:25:25.191Z,100902.94
2023-08-31T20:27:51.929Z,100905.53
2023-08-31T20:30:19.568Z,100907.13
2023-08-31T20:32:46.766Z,100915.09
2023-08-31T20:35:15.219Z,100923.50
2023-08-31T20:37:42.284Z,100922.25
2023-08-31T20:40:10.120Z,100922.47
2023-08-31T20:42:39.570Z,100924.44
2023-08-31T20:45:08.191Z,100922.81
2023-08-31T20:47:34.905Z,100930.66
2023-08-31T20:50:03.012Z,100928.66
2023-08-31T20:52:31.385Z,100929.72
2023-08-31T20:54:59.237Z,100926.72
2023-08-31T20:57:26.496Z,100924.91
2023-08-31T20:59:53.196Z,100915.09
2023-08-31T21:02:19.963Z,100917.53
2023-08-31T21:04:47.759Z,100915.69
2023-08-31T21:07:14.511Z,100915.91
2023-08-31T21:09:42.089Z,100918.72
2023-08-31T21:12:08.931Z,100924.09
2023-08-31T21:14:35.657Z,100930.50
2023-08-31T21:17:02.581Z,100931.31
2023-08-31T21:19:29.330Z,100927.28
2023-08-31T21:21:56.008Z,100930.09
2023-08-31T21:24:22.670Z,100922.25
2023-08-31T21:26:49.805Z,100926.88
2023-08-31T21:29:16.471Z,100928.66
2023-08-31T21:31:43.316Z,100929.47
2023-08-31T21:34:09.964Z,100922.00
2023-08-31T21:36:36.608Z,100927.81
2023-08-31T21:39:03.896Z,100926.97
2023-08-31T21:41:30.638Z,100914.13
2023-08-31T21:43:57.424Z,100916.13
2023-08-31T21:46:24.146Z,100921.09
2023-08-31T21:48:53.387Z,100925.91
2023-08-31T21:51:20.487Z,100930.06
2023-08-31T21:53:47.276Z,100925.16
2023-08-31T21:56:13.901Z,100923.72
2023-08-31T21:58:41.040Z,100926.53
2023-08-31T22:01:07.742Z,100919.28
2023-08-31T22:03:34.615Z,100913.78
2023-08-31T22:06:10.520Z,100915.41
2023-08-31T22:08:37.581Z,100920.63
2023-08-31T22:11:05.298Z,100912.97
2023-08-31T22:13:32.193Z,100923.19
2023-08-31T22:15:59.190Z,100927.34
2023-08-31T22:18:26.060Z,100924.09
2023-08-31T22:20:52.839Z,100924.09
2023-08-31T22:23:19.842Z,100924.91
2023-08-31T22:25:46.548Z,100923.28
2023-08-31T22:28:14.235Z,100930.31
2023-08-31T22:30:42.076Z,100932.28
2023-08-31T22:33:11.875Z,100940.13
2023-08-31T22:35:38.698Z,100938.06
2023-08-31T22:38:05.372Z,100940.88
2023-08-31T22:40:31.989Z,100948.69
2023-08-31T22:42:58.576Z,100935.38
2023-08-31T22:45:25.304Z,100929.56
2023-08-31T22:47:52.242Z,100937.38
2023-08-31T22:50:18.879Z,100934.75
2023-08-31T22:52:45.591Z,100935.94
2023-08-31T22:55:12.321Z,100938.53
2023-08-31T22:57:39.297Z,100936.91
2023-08-31T23:00:07.778Z,100941.34
2023-08-31T23:02:34.706Z,100940.72
2023-08-31T23:05:01.590Z,100942.31
2023-08-31T23:07:28.374Z,100934.69
2023-08-31T23:09:55.031Z,100937.94
2023-08-31T23:12:21.889Z,100936.28
2023-08-31T23:14:48.532Z,100937.47
2023-08-31T23:17:15.766Z,100939.09
2023-08-31T23:19:42.485Z,100934.69
2023-08-31T23:22:09.477Z,100935.66
2023-08-31T23:24:36.307Z,100934.84
2023-08-31T23:27:03.482Z,100925.25
2023-08-31T23:29:30.260Z,100929.47
2023-08-31T23:31:57.029Z,100928.66
2023-08-31T23:34:23.665Z,100932.25
2023-08-31T23:36:51.822Z,100918.78
2023-08-31T23:39:18.473Z,100920.41
2023-08-31T23:41:45.090Z,100916.19
2023-08-31T23:44:11.694Z,100921.41
2023-08-31T23:46:38.641Z,100922.22
2023-08-31T23:49:05.339Z,100913.56
2023-08-31T23:51:32.839Z,100921.59
2023-08-31T23:53:59.628Z,100924.56
2023-08-31T23:56:26.272Z,100933.72
2023-08-31T23:58:52.899Z,100926.06
